Time;durP1;ratioP1;P1;durP2;ratioP2;P2;SDS_P1;SDS_P2;PMS_P1;PMS_P2;Temp;Humidity;BMP_temperature;BMP_pressure;BME280_temperature;BME280_humidity;BME280_pressure;Samples;Min_cycle;Max_cycle;Signal;HPM_P1;HPM_P2
2022/04/30 00:01:18;;;;;;;6.00;4.20;;;5.40;99.90;;;;;;5056523;28;20183;-79
2022/04/30 00:03:44;;;;;;;6.20;3.67;;;5.30;99.90;;;;;;5053879;28;20442;-79
2022/04/30 00:06:10;;;;;;;8.33;3.33;;;5.30;99.90;;;;;;5053824;28;20904;-79
2022/04/30 00:08:35;;;;;;;4.83;4.30;;;5.30;99.90;;;;;;5053698;28;20217;-79
2022/04/30 00:11:01;;;;;;;4.60;3.43;;;5.20;99.90;;;;;;5053752;28;20858;-79
2022/04/30 00:13:26;;;;;;;9.67;3.97;;;5.20;99.90;;;;;;5053799;28;20169;-79
2022/04/30 00:15:52;;;;;;;5.57;3.70;;;5.20;99.90;;;;;;5053278;28;20610;-80
2022/04/30 00:18:18;;;;;;;5.80;3.87;;;5.10;99.90;;;;;;5053461;28;20296;-79
2022/04/30 00:20:47;;;;;;;7.17;3.90;;;5.10;99.90;;;;;;5053716;28;20197;-79
2022/04/30 00:23:23;;;;;;;5.43;3.13;;;5.30;99.90;;;;;;5035636;28;20626;-79
2022/04/30 00:25:51;;;;;;;4.57;3.27;;;5.20;99.90;;;;;;5053438;28;20409;-79
2022/04/30 00:28:18;;;;;;;6.50;4.17;;;5.20;99.90;;;;;;5053206;28;20514;-80
2022/04/30 00:30:48;;;;;;;4.77;3.40;;;5.30;99.90;;;;;;5053034;28;20503;-78
2022/04/30 00:33:16;;;;;;;4.90;3.47;;;5.30;99.90;;;;;;5053331;28;21008;-79
2022/04/30 00:35:45;;;;;;;13.47;4.97;;;5.20;99.90;;;;;;5053359;28;20412;-79
2022/04/30 00:38:10;;;;;;;6.20;3.57;;;5.20;99.90;;;;;;5053246;28;20439;-79
2022/04/30 00:40:36;;;;;;;6.60;3.83;;;5.10;99.90;;;;;;5053259;28;20808;-79
2022/04/30 00:43:02;;;;;;;8.80;3.90;;;5.20;99.90;;;;;;5053197;28;20622;-79
2022/04/30 00:45:27;;;;;;;6.70;4.77;;;5.20;99.90;;;;;;5052716;28;20416;-79
2022/04/30 00:47:55;;;;;;;5.87;5.03;;;5.10;99.90;;;;;;5052972;28;20216;-79
2022/04/30 00:50:21;;;;;;;7.00;4.10;;;5.10;99.90;;;;;;5053051;28;20173;-79
2022/04/30 00:52:48;;;;;;;5.33;3.93;;;5.00;99.90;;;;;;5052816;28;20884;-79
2022/04/30 00:55:21;;;;;;;5.90;4.50;;;5.00;99.90;;;;;;5052978;28;20415;-79
2022/04/30 00:57:52;;;;;;;9.10;4.63;;;5.00;99.90;;;;;;5052987;28;20482;-79
2022/04/30 01:00:17;;;;;;;7.90;4.60;;;5.00;99.90;;;;;;5034799;28;20477;-79
2022/04/30 01:02:43;;;;;;;5.13;4.30;;;4.90;99.90;;;;;;5035019;28;20420;-79
2022/04/30 01:05:10;;;;;;;6.37;3.57;;;4.90;99.90;;;;;;5052909;28;20231;-79
2022/04/30 01:07:39;;;;;;;5.07;3.77;;;4.80;99.90;;;;;;5067760;28;20200;-79
2022/04/30 01:10:06;;;;;;;5.70;2.90;;;4.80;99.90;;;;;;5072563;28;21004;-79
2022/04/30 01:12:32;;;;;;;5.80;3.00;;;4.80;99.90;;;;;;5054793;28;20919;-79
2022/04/30 01:14:57;;;;;;;8.00;4.30;;;4.80;99.90;;;;;;5072500;28;20416;-79
2022/04/30 01:17:23;;;;;;;10.80;4.10;;;4.80;99.90;;;;;;5072818;28;20532;-79
2022/04/30 01:19:49;;;;;;;7.60;4.30;;;4.70;99.90;;;;;;5072792;28;20169;-79
2022/04/30 01:22:36;;;;;;;8.13;4.37;;;4.70;99.90;;;;;;5072746;28;20176;-79
2022/04/30 01:25:02;;;;;;;8.03;5.30;;;4.60;99.90;;;;;;5072751;28;20419;-79
2022/04/30 01:27:29;;;;;;;7.47;4.13;;;4.60;99.90;;;;;;5072587;28;20553;-79
2022/04/30 01:29:56;;;;;;;10.77;4.40;;;4.50;99.90;;;;;;5072416;28;20415;-79
2022/04/30 01:38:05;;;;;;;7.20;5.50;;;4.40;99.90;;;;;;5076624;28;20820;-79
2022/04/30 01:40:31;;;;;;;5.30;4.43;;;4.40;99.90;;;;;;5058569;28;20419;-78
2022/04/30 01:43:00;;;;;;;13.70;5.40;;;4.40;99.90;;;;;;5076614;28;20521;-79
2022/04/30 01:45:26;;;;;;;10.50;4.90;;;4.40;99.90;;;;;;5076425;28;20419;-79
2022/04/30 01:47:52;;;;;;;8.90;4.43;;;4.30;99.90;;;;;;5076419;28;20550;-79
2022/04/30 01:50:18;;;;;;;6.90;4.70;;;4.30;99.90;;;;;;5076359;28;20411;-79
2022/04/30 01:52:43;;;;;;;5.80;4.23;;;4.30;99.90;;;;;;5076097;28;20481;-79
2022/04/30 01:55:10;;;;;;;8.07;6.10;;;4.30;99.90;;;;;;5076262;28;20249;-80
2022/04/30 01:57:38;;;;;;;8.07;5.40;;;4.20;99.90;;;;;;5076284;28;20175;-78
2022/04/30 02:00:12;;;;;;;7.60;5.10;;;4.20;99.90;;;;;;5057881;28;20415;-80
2022/04/30 02:02:38;;;;;;;10.20;5.50;;;4.20;99.90;;;;;;5076046;28;20419;-80
2022/04/30 02:05:07;;;;;;;6.77;5.10;;;4.20;99.90;;;;;;5075936;28;20927;-80
2022/04/30 02:07:39;;;;;;;8.90;5.50;;;4.20;99.90;;;;;;5075113;28;20880;-80
2022/04/30 02:10:06;;;;;;;7.70;5.60;;;4.20;99.90;;;;;;5075919;28;20447;-80
2022/04/30 02:12:33;;;;;;;7.70;5.60;;;4.20;99.90;;;;;;5075654;28;20448;-78
2022/04/30 02:14:59;;;;;;;9.27;5.70;;;4.10;99.90;;;;;;5075681;28;20943;-80
2022/04/30 02:17:35;;;;;;;6.20;5.20;;;4.10;99.90;;;;;;5075927;28;20403;-80
2022/04/30 02:20:22;;;;;;;7.13;6.20;;;4.00;99.90;;;;;;5075888;28;20410;-80
2022/04/30 02:22:52;;;;;;;11.30;5.57;;;4.10;99.90;;;;;;5075842;28;20411;-80
2022/04/30 02:25:19;;;;;;;5.07;4.37;;;4.00;99.90;;;;;;5075730;28;20469;-78
2022/04/30 02:27:53;;;;;;;7.30;5.00;;;4.10;99.90;;;;;;5075599;28;20474;-78
2022/04/30 02:30:20;;;;;;;6.73;4.60;;;4.00;99.90;;;;;;5057325;28;20946;-79
2022/04/30 02:32:52;;;;;;;10.10;5.47;;;4.10;99.90;;;;;;5075524;28;20415;-80
2022/04/30 02:35:30;;;;;;;8.90;5.80;;;4.00;99.90;;;;;;5075595;28;20796;-80
2022/04/30 02:37:59;;;;;;;10.03;5.93;;;4.00;99.90;;;;;;5075530;28;20927;-79
2022/04/30 02:40:25;;;;;;;8.83;5.57;;;4.00;99.90;;;;;;5075393;28;20411;-80
2022/04/30 02:42:52;;;;;;;9.17;5.87;;;3.90;99.90;;;;;;5074183;28;20403;-78
2022/04/30 02:45:24;;;;;;;10.77;5.73;;;3.90;99.90;;;;;;5074991;28;20908;-79
2022/04/30 02:47:53;;;;;;;9.70;6.17;;;3.90;99.90;;;;;;5075295;28;20973;-80
2022/04/30 02:50:21;;;;;;;6.67;5.97;;;3.80;99.90;;;;;;5075372;28;20418;-80
2022/04/30 02:52:47;;;;;;;15.10;7.30;;;3.90;99.90;;;;;;5075039;28;20976;-80
2022/04/30 02:55:13;;;;;;;8.77;7.13;;;3.90;99.90;;;;;;5075132;28;20415;-79
2022/04/30 02:57:39;;;;;;;8.50;6.30;;;3.90;99.90;;;;;;5075160;28;20223;-80
2022/04/30 03:00:08;;;;;;;10.50;6.07;;;3.90;99.90;;;;;;5074870;28;20177;-80
2022/04/30 03:02:34;;;;;;;6.80;5.70;;;3.90;99.90;;;;;;5075130;28;20426;-80
2022/04/30 03:04:59;;;;;;;9.27;7.30;;;3.90;99.90;;;;;;5057222;28;20899;-79
2022/04/30 03:07:25;;;;;;;11.40;8.10;;;3.90;99.90;;;;;;5074827;28;20242;-79
2022/04/30 03:09:50;;;;;;;10.27;6.27;;;3.90;99.90;;;;;;5056998;28;20246;-79
2022/04/30 03:12:16;;;;;;;9.27;5.70;;;3.90;99.90;;;;;;5057087;28;20191;-79
2022/04/30 03:14:42;;;;;;;14.47;6.93;;;3.90;99.90;;;;;;5074446;28;20617;-80
2022/04/30 03:22:37;;;;;;;7.37;5.83;;;3.80;99.90;;;;;;5074737;28;20912;-79
2022/04/30 03:25:03;;;;;;;9.10;5.90;;;3.80;99.90;;;;;;5073760;28;20419;-79
2022/04/30 03:27:28;;;;;;;13.30;5.77;;;3.80;99.90;;;;;;5056504;28;20586;-79
2022/04/30 03:29:54;;;;;;;9.90;6.33;;;3.80;99.90;;;;;;5074170;28;20622;-79
2022/04/30 03:32:20;;;;;;;10.70;6.60;;;3.80;99.90;;;;;;5056650;28;20172;-79
2022/04/30 03:34:46;;;;;;;11.83;7.30;;;3.80;99.90;;;;;;5074421;28;20169;-79
2022/04/30 03:37:13;;;;;;;10.13;7.00;;;3.80;99.90;;;;;;5074416;28;20415;-79
2022/04/30 03:39:39;;;;;;;9.13;6.40;;;3.70;99.90;;;;;;5074373;28;20419;-79
2022/04/30 03:42:05;;;;;;;11.30;7.07;;;3.70;99.90;;;;;;5074296;28;20819;-79
2022/04/30 03:44:30;;;;;;;7.10;6.30;;;3.70;99.90;;;;;;5073872;28;20165;-78
2022/04/30 03:46:55;;;;;;;8.43;6.97;;;3.70;99.90;;;;;;5074213;28;20633;-78
2022/04/30 03:49:24;;;;;;;11.73;6.90;;;3.60;99.90;;;;;;5074074;28;20689;-78
2022/04/30 03:51:50;;;;;;;9.60;6.90;;;3.60;99.90;;;;;;5073946;28;20215;-79
2022/04/30 03:54:15;;;;;;;9.20;6.17;;;3.70;99.90;;;;;;5073595;28;20416;-78
2022/04/30 03:56:41;;;;;;;8.57;5.80;;;3.60;99.90;;;;;;5073974;28;20169;-78
2022/04/30 03:59:06;;;;;;;9.63;6.60;;;3.60;99.90;;;;;;5055636;28;20215;-79
2022/04/30 04:01:34;;;;;;;10.10;7.07;;;3.60;99.90;;;;;;5073969;28;20187;-79
2022/04/30 04:04:00;;;;;;;9.57;6.97;;;3.60;99.90;;;;;;5073798;28;20588;-79
2022/04/30 04:06:26;;;;;;;10.80;7.27;;;3.60;99.90;;;;;;5073758;28;20403;-80
2022/04/30 04:08:52;;;;;;;8.80;6.80;;;3.70;99.90;;;;;;5073649;28;20529;-79
2022/04/30 04:11:18;;;;;;;10.63;7.43;;;3.70;99.90;;;;;;5055820;28;20169;-80
2022/04/30 04:19:12;;;;;;;10.87;6.97;;;3.80;99.90;;;;;;5073940;28;20402;-80
2022/04/30 04:21:37;;;;;;;11.07;6.93;;;3.90;99.90;;;;;;5073481;28;20420;-80
2022/04/30 04:27:07;;;;;;;9.00;5.77;;;3.90;99.90;;;;;;4991928;28;20167;-80
2022/04/30 04:29:32;;;;;;;9.47;6.70;;;4.00;99.90;;;;;;4975504;28;20517;-80
2022/04/30 04:31:58;;;;;;;14.60;7.40;;;4.10;99.90;;;;;;5029197;28;20181;-79
2022/04/30 04:34:24;;;;;;;9.40;6.53;;;4.10;99.90;;;;;;5073330;28;20176;-79
2022/04/30 04:36:52;;;;;;;11.00;7.27;;;4.20;99.90;;;;;;5073290;28;20173;-80
2022/04/30 04:39:17;;;;;;;8.60;6.90;;;4.20;99.90;;;;;;5073131;28;20244;-79
2022/04/30 04:41:43;;;;;;;11.33;6.40;;;4.20;99.90;;;;;;5073271;28;20923;-79
2022/04/30 04:44:09;;;;;;;9.23;7.03;;;4.30;99.90;;;;;;5072800;28;20527;-79
2022/04/30 04:46:38;;;;;;;11.67;7.57;;;4.40;99.90;;;;;;5073228;28;20415;-79
2022/04/30 04:49:04;;;;;;;10.10;7.00;;;4.40;99.90;;;;;;5073055;28;20608;-79
2022/04/30 04:51:30;;;;;;;7.53;6.63;;;4.40;99.90;;;;;;5072762;28;20415;-79
2022/04/30 04:53:56;;;;;;;9.37;7.33;;;4.50;99.90;;;;;;5073073;28;20427;-80
2022/04/30 04:56:22;;;;;;;9.87;7.10;;;4.50;99.90;;;;;;5055188;28;20165;-79
2022/04/30 04:58:48;;;;;;;11.10;7.30;;;4.50;99.90;;;;;;5072345;28;20240;-79
2022/04/30 05:01:13;;;;;;;8.63;6.90;;;4.60;99.90;;;;;;5072212;28;20494;-79
2022/04/30 05:03:39;;;;;;;8.17;6.67;;;4.70;99.90;;;;;;5072945;28;20204;-79
2022/04/30 05:06:05;;;;;;;8.97;6.43;;;4.70;99.90;;;;;;5072105;28;20175;-79
2022/04/30 05:08:33;;;;;;;7.87;6.60;;;4.80;99.90;;;;;;5054665;28;20585;-79
2022/04/30 05:10:59;;;;;;;7.07;5.73;;;4.90;99.90;;;;;;5072768;28;20169;-79
2022/04/30 05:13:24;;;;;;;9.47;6.73;;;5.00;99.90;;;;;;5072444;28;20431;-79
2022/04/30 05:15:50;;;;;;;10.43;7.67;;;5.10;99.90;;;;;;5072798;28;20622;-79
2022/04/30 05:18:15;;;;;;;9.83;6.60;;;5.30;99.90;;;;;;5054646;28;20214;-80
2022/04/30 05:20:41;;;;;;;11.00;6.40;;;5.50;99.90;;;;;;5072728;28;20415;-79
2022/04/30 05:23:06;;;;;;;8.53;7.03;;;5.70;99.90;;;;;;5072614;28;20205;-79
2022/04/30 05:25:32;;;;;;;9.23;6.60;;;5.80;99.90;;;;;;5072707;28;20256;-79
2022/04/30 05:27:57;;;;;;;12.77;7.43;;;6.10;99.90;;;;;;5072458;28;20196;-79
2022/04/30 05:30:24;;;;;;;10.90;7.17;;;6.30;99.90;;;;;;5072358;28;20181;-79
2022/04/30 05:32:49;;;;;;;7.37;6.23;;;6.50;99.90;;;;;;5072578;28;20500;-79
2022/04/30 05:35:15;;;;;;;6.77;5.63;;;6.90;99.90;;;;;;5072628;28;20416;-79
2022/04/30 05:37:40;;;;;;;7.27;5.20;;;7.30;99.90;;;;;;5054415;28;20234;-80
2022/04/30 05:40:07;;;;;;;14.57;5.33;;;7.50;99.90;;;;;;5054589;28;20170;-80
2022/04/30 05:42:32;;;;;;;6.50;4.23;;;7.80;99.90;;;;;;5072626;28;20251;-80
2022/04/30 05:44:58;;;;;;;8.27;5.00;;;8.00;99.90;;;;;;5072229;28;20414;-80
2022/04/30 05:47:24;;;;;;;6.97;3.83;;;8.10;99.90;;;;;;5072503;28;20717;-80
2022/04/30 05:49:50;;;;;;;5.00;3.60;;;8.30;99.90;;;;;;5072484;28;20584;-81
2022/04/30 05:52:15;;;;;;;7.70;3.23;;;8.60;99.90;;;;;;5072222;28;20460;-80
2022/04/30 05:54:41;;;;;;;3.83;2.10;;;9.10;99.90;;;;;;5072404;28;20230;-80
2022/04/30 05:57:06;;;;;;;5.70;3.00;;;9.60;1.00;;;;;;5072410;28;20168;-81
2022/04/30 05:59:32;;;;;;;6.03;2.80;;;10.10;1.00;;;;;;5072132;28;20167;-81
2022/04/30 06:01:57;;;;;;;6.90;2.60;;;10.50;1.00;;;;;;5072350;28;20654;-80
2022/04/30 06:04:23;;;;;;;6.20;2.83;;;11.10;1.00;;;;;;5072398;28;20167;-80
2022/04/30 06:06:48;;;;;;;5.53;3.13;;;11.70;1.00;;;;;;5072261;28;20171;-80
2022/04/30 06:09:14;;;;;;;4.17;2.40;;;12.40;99.90;;;;;;5072228;28;20687;-80
2022/04/30 06:11:40;;;;;;;5.20;3.40;;;12.80;1.00;;;;;;5070846;28;20172;-79
2022/04/30 06:14:06;;;;;;;3.73;2.10;;;12.60;99.90;;;;;;5070431;28;20681;-79
2022/04/30 06:16:31;;;;;;;5.23;2.77;;;13.30;99.90;;;;;;5072463;28;20422;-79
2022/04/30 06:18:57;;;;;;;8.97;2.90;;;13.80;99.90;;;;;;5074171;28;20161;-79
2022/04/30 06:21:23;;;;;;;5.57;2.27;;;14.00;99.90;;;;;;5070551;28;20178;-79
2022/04/30 06:23:50;;;;;;;4.37;2.47;;;14.30;99.90;;;;;;5072048;28;20208;-80
2022/04/30 06:26:15;;;;;;;4.03;2.53;;;14.30;99.90;;;;;;5073008;28;20400;-80
2022/04/30 06:28:41;;;;;;;3.60;2.37;;;14.40;99.90;;;;;;5074466;28;21002;-80
2022/04/30 06:31:06;;;;;;;6.73;2.80;;;14.90;99.90;;;;;;5075401;28;20316;-80
2022/04/30 06:33:32;;;;;;;5.17;2.13;;;13.80;99.90;;;;;;5075293;28;20340;-78
2022/04/30 06:35:58;;;;;;;3.93;1.80;;;13.90;99.90;;;;;;5074403;28;20280;-79
2022/04/30 06:38:23;;;;;;;5.10;2.47;;;14.80;99.90;;;;;;5056506;28;20181;-81
2022/04/30 06:40:49;;;;;;;3.27;1.60;;;15.50;99.90;;;;;;5074942;28;20947;-81
2022/04/30 06:43:14;;;;;;;7.70;1.90;;;15.40;90.60;;;;;;5073761;28;20185;-80
2022/04/30 06:45:43;;;;;;;4.40;2.50;;;15.60;73.70;;;;;;5075127;28;20659;-81
2022/04/30 06:48:08;;;;;;;4.00;1.43;;;15.70;56.20;;;;;;5074088;28;20210;-81
2022/04/30 06:50:34;;;;;;;3.40;1.30;;;15.30;43.60;;;;;;5075120;28;20848;-80
2022/04/30 06:58:40;;;;;;;3.27;1.60;;;16.00;45.40;;;;;;5075339;28;20799;-80
2022/04/30 07:03:53;;;;;;;2.67;1.90;;;17.40;9.40;;;;;;5067876;28;20425;-81
2022/04/30 07:06:19;;;;;;;3.10;1.37;;;17.50;1.00;;;;;;5047496;28;20445;-82
2022/04/30 07:08:44;;;;;;;6.00;2.13;;;17.80;1.00;;;;;;5074642;28;20478;-78
2022/04/30 07:11:10;;;;;;;3.87;1.83;;;18.20;1.00;;;;;;5074662;28;20225;-79
2022/04/30 07:13:35;;;;;;;3.87;1.90;;;18.70;1.00;;;;;;5071408;28;20177;-79
2022/04/30 07:16:03;;;;;;;2.20;1.53;;;19.00;1.00;;;;;;5054292;28;20163;-78
2022/04/30 07:18:29;;;;;;;3.07;1.60;;;19.10;1.00;;;;;;5054336;28;20231;-79
2022/04/30 07:20:55;;;;;;;3.27;1.80;;;19.20;1.00;;;;;;5054627;28;20818;-79
2022/04/30 07:23:21;;;;;;;3.33;1.80;;;19.10;1.00;;;;;;5054575;28;20207;-81
2022/04/30 07:25:52;;;;;;;2.97;1.33;;;19.00;1.00;;;;;;5052468;28;20419;-84
2022/04/30 07:28:18;;;;;;;1.90;1.27;;;19.40;1.00;;;;;;5054592;28;20221;-87
2022/04/30 07:30:43;;;;;;;1.60;1.00;;;18.00;1.00;;;;;;5038338;28;20453;-84
2022/04/30 07:33:09;;;;;;;3.70;1.23;;;18.60;1.00;;;;;;5056003;28;20172;-90
2022/04/30 07:35:35;;;;;;;2.40;1.37;;;19.00;1.00;;;;;;5075488;28;20249;-93
2022/04/30 07:38:00;;;;;;;2.83;1.33;;;18.70;1.00;;;;;;5078230;28;20230;-91
2022/04/30 07:40:26;;;;;;;3.10;1.37;;;18.80;1.00;;;;;;5075377;28;20184;-92
2022/04/30 07:42:51;;;;;;;3.20;1.20;;;18.90;1.00;;;;;;5075902;28;20176;-87
2022/04/30 07:45:17;;;;;;;1.80;1.00;;;18.60;1.00;;;;;;5076379;28;20251;-94
2022/04/30 07:47:43;;;;;;;4.20;1.37;;;19.30;1.00;;;;;;5060035;28;20234;-93
2022/04/30 07:50:09;;;;;;;2.77;1.30;;;19.80;1.00;;;;;;5078858;28;20197;-94
2022/04/30 07:52:35;;;;;;;2.00;0.73;;;20.10;1.00;;;;;;5059240;28;20254;-91
2022/04/30 07:55:02;;;;;;;5.27;1.40;;;19.80;1.00;;;;;;5076228;28;20521;-92
2022/04/30 07:57:28;;;;;;;1.40;1.30;;;20.10;1.00;;;;;;5054317;28;20435;-87
2022/04/30 07:59:53;;;;;;;3.83;1.60;;;20.00;1.00;;;;;;5048869;28;20434;-85
2022/04/30 08:02:19;;;;;;;2.00;0.80;;;20.20;1.00;;;;;;5069134;28;20427;-84
2022/04/30 08:04:45;;;;;;;3.13;1.17;;;20.70;1.00;;;;;;5060249;28;20170;-87
2022/04/30 08:07:11;;;;;;;3.40;0.80;;;20.90;1.00;;;;;;5065069;28;20197;-87
2022/04/30 08:09:36;;;;;;;3.33;1.37;;;20.70;1.00;;;;;;5073212;28;20509;-85
2022/04/30 08:12:02;;;;;;;1.97;1.07;;;21.00;1.00;;;;;;5072932;28;20691;-85
2022/04/30 08:14:28;;;;;;;1.93;1.10;;;20.90;1.00;;;;;;5073915;28;20249;-82
2022/04/30 08:16:54;;;;;;;2.20;1.40;;;21.20;1.00;;;;;;5056614;28;20169;-90
2022/04/30 08:19:20;;;;;;;2.80;1.60;;;21.10;1.00;;;;;;5074296;28;20419;-91
2022/04/30 08:21:48;;;;;;;1.50;1.17;;;21.70;1.00;;;;;;5056469;28;20431;-90
2022/04/30 08:24:14;;;;;;;2.70;1.00;;;21.70;1.00;;;;;;5074314;28;20597;-82
2022/04/30 08:26:40;;;;;;;2.60;1.50;;;19.90;1.00;;;;;;5074135;28;20505;-91
2022/04/30 08:29:06;;;;;;;3.90;1.80;;;19.30;1.00;;;;;;5073817;28;20209;-91
2022/04/30 08:31:32;;;;;;;5.80;1.77;;;19.10;1.00;;;;;;5074269;28;20625;-86
2022/04/30 08:33:58;;;;;;;5.03;1.50;;;19.30;1.00;;;;;;5074781;28;20514;-92
2022/04/30 08:36:23;;;;;;;1.97;1.27;;;19.50;1.00;;;;;;5074542;28;20192;-89
2022/04/30 08:38:49;;;;;;;3.53;1.47;;;20.10;1.00;;;;;;5074332;28;20237;-90
2022/04/30 08:41:16;;;;;;;5.10;2.00;;;19.80;1.00;;;;;;5074216;28;20161;-89
2022/04/30 08:43:45;;;;;;;3.87;1.90;;;19.30;1.00;;;;;;5074045;28;20420;-87
2022/04/30 08:46:11;;;;;;;4.43;1.70;;;19.10;1.00;;;;;;5074360;28;20414;-90
2022/04/30 08:48:38;;;;;;;4.10;1.67;;;19.30;1.00;;;;;;5075808;28;20462;-87
2022/04/30 08:51:04;;;;;;;4.47;1.90;;;19.00;1.00;;;;;;5075662;28;20185;-90
2022/04/30 08:53:29;;;;;;;2.80;1.43;;;19.20;1.00;;;;;;5074965;28;20821;-89
2022/04/30 08:55:55;;;;;;;3.40;1.87;;;19.30;1.00;;;;;;5075882;28;20226;-93
2022/04/30 08:58:21;;;;;;;2.77;1.93;;;18.70;1.00;;;;;;5074720;28;20176;-91
2022/04/30 09:00:50;;;;;;;4.70;1.93;;;19.30;1.00;;;;;;5074244;28;20625;-91
2022/04/30 09:03:18;;;;;;;2.60;1.90;;;19.10;1.00;;;;;;5074442;28;20640;-93
2022/04/30 09:05:44;;;;;;;3.13;1.90;;;18.70;1.00;;;;;;5074202;28;20748;-91
2022/04/30 09:08:10;;;;;;;3.07;1.97;;;17.90;1.00;;;;;;5074329;28;20493;-92
2022/04/30 09:10:41;;;;;;;2.83;1.80;;;18.40;1.00;;;;;;5074603;28;20411;-92
2022/04/30 09:13:14;;;;;;;2.77;1.53;;;18.40;1.00;;;;;;5074074;28;20407;-89
2022/04/30 09:15:44;;;;;;;6.60;2.80;;;18.30;1.00;;;;;;5075130;28;20411;-94
2022/04/30 09:18:10;;;;;;;4.00;2.17;;;19.10;1.00;;;;;;5079860;28;20403;-96
2022/04/30 09:20:42;;;;;;;3.50;2.10;;;18.10;1.00;;;;;;5081073;28;20812;-94
2022/04/30 09:23:09;;;;;;;3.87;2.20;;;20.00;1.00;;;;;;5081164;28;20411;-93
2022/04/30 09:25:35;;;;;;;5.03;1.97;;;19.70;1.00;;;;;;5079976;28;20775;-93
2022/04/30 09:28:00;;;;;;;2.83;1.37;;;19.90;1.00;;;;;;5080616;28;20446;-95
2022/04/30 09:30:29;;;;;;;5.83;1.80;;;20.00;1.00;;;;;;5081338;28;20184;-93
2022/04/30 09:33:08;;;;;;;7.20;2.83;;;20.00;1.00;;;;;;5081662;28;20203;-95
2022/04/30 09:38:23;;;;;;;1.87;1.20;;;20.80;1.00;;;;;;5081352;28;20464;-93
2022/04/30 09:41:00;;;;;;;1.83;1.60;;;21.30;1.00;;;;;;5080813;28;20462;-96
2022/04/30 09:43:33;;;;;;;5.00;1.60;;;21.40;1.00;;;;;;5080810;28;20422;-93
2022/04/30 09:46:00;;;;;;;4.30;1.50;;;21.80;1.00;;;;;;5144360;22;20399;-87
2022/04/30 09:53:56;;;;;;;3.20;1.73;;;22.40;1.00;;;;;;5054469;28;20542;-94
2022/04/30 09:56:45;;;;;;;2.77;1.30;;;22.00;1.00;;;;;;5058346;28;20452;-93
2022/04/30 09:59:15;;;;;;;4.27;2.70;;;21.70;1.00;;;;;;5057875;28;20197;-92
2022/04/30 10:01:47;;;;;;;2.90;1.90;;;21.80;1.00;;;;;;5057159;28;20447;-91
2022/04/30 10:04:15;;;;;;;2.93;1.20;;;21.10;1.00;;;;;;5056870;28;20420;-89
2022/04/30 10:06:42;;;;;;;1.63;1.40;;;19.00;1.00;;;;;;5056439;28;20483;-87
2022/04/30 10:09:10;;;;;;;3.13;0.73;;;17.80;1.00;;;;;;5056393;28;20470;-88
2022/04/30 10:11:48;;;;;;;1.47;0.80;;;18.30;1.00;;;;;;5038133;28;20419;-87
2022/04/30 10:14:24;;;;;;;3.70;1.10;;;17.70;1.00;;;;;;5055854;28;20415;-87
2022/04/30 10:19:35;;;;;;;0.87;0.50;;;20.20;1.00;;;;;;5055939;28;20528;-86
2022/04/30 10:22:15;;;;;;;1.33;0.60;;;21.40;1.00;;;;;;5055761;28;20487;-89
2022/04/30 10:24:42;;;;;;;1.83;0.83;;;21.90;1.00;;;;;;5055919;28;20563;-91
2022/04/30 10:27:08;;;;;;;1.53;1.00;;;21.80;1.00;;;;;;5056160;28;20507;-89
2022/04/30 10:29:33;;;;;;;1.50;0.77;;;22.00;1.00;;;;;;5055482;28;20566;-90
2022/04/30 10:31:59;;;;;;;1.93;1.50;;;22.30;1.00;;;;;;5038712;28;20625;-89
2022/04/30 10:34:29;;;;;;;0.93;0.70;;;23.00;1.00;;;;;;5055679;28;20174;-90
2022/04/30 10:36:55;;;;;;;5.80;0.97;;;23.50;1.00;;;;;;5055515;28;20166;-90
2022/04/30 10:39:21;;;;;;;1.43;0.90;;;22.50;1.00;;;;;;5034314;28;20477;-90
2022/04/30 10:41:52;;;;;;;1.10;0.70;;;22.90;1.00;;;;;;5046762;28;20178;-89
2022/04/30 10:44:31;;;;;;;2.47;0.93;;;22.50;1.00;;;;;;5037593;28;20184;-89
2022/04/30 10:47:07;;;;;;;1.73;0.70;;;23.20;1.00;;;;;;5055749;28;20460;-88
2022/04/30 10:49:33;;;;;;;1.63;0.60;;;23.30;1.00;;;;;;5036941;28;20443;-88
2022/04/30 10:51:59;;;;;;;1.23;0.83;;;23.30;1.00;;;;;;5055788;28;20892;-90
2022/04/30 10:54:26;;;;;;;2.33;0.70;;;23.30;1.00;;;;;;5055825;28;20707;-89
2022/04/30 10:57:03;;;;;;;3.80;1.73;;;22.30;1.00;;;;;;5055275;28;20916;-88
2022/04/30 10:59:28;;;;;;;2.90;1.27;;;20.50;1.00;;;;;;5054396;28;20990;-88
2022/04/30 11:01:54;;;;;;;4.23;1.03;;;19.60;1.00;;;;;;5036673;28;20428;-88
2022/04/30 11:04:20;;;;;;;4.80;1.10;;;19.30;1.00;;;;;;5035827;28;20182;-88
2022/04/30 11:06:50;;;;;;;2.70;1.40;;;18.90;1.00;;;;;;5054886;28;20188;-88
2022/04/30 11:09:15;;;;;;;4.90;1.43;;;18.70;1.00;;;;;;5055109;28;20451;-88
2022/04/30 11:11:45;;;;;;;1.80;1.00;;;18.60;1.00;;;;;;5054820;28;20954;-88
2022/04/30 11:14:11;;;;;;;2.07;1.17;;;18.40;1.00;;;;;;5054864;28;20259;-88
2022/04/30 11:16:44;;;;;;;3.80;1.50;;;18.00;1.00;;;;;;5055369;28;20418;-89
2022/04/30 11:19:15;;;;;;;2.93;1.33;;;17.60;1.00;;;;;;5055236;28;20518;-89
2022/04/30 11:21:43;;;;;;;2.27;1.00;;;17.90;1.00;;;;;;5036419;28;20421;-88
2022/04/30 11:24:10;;;;;;;2.80;1.10;;;18.20;1.00;;;;;;5036506;28;20515;-89
2022/04/30 11:26:40;;;;;;;1.90;0.77;;;17.70;1.00;;;;;;5054724;28;20410;-89
2022/04/30 11:29:14;;;;;;;1.87;1.00;;;18.40;1.00;;;;;;5056746;28;20773;-89
2022/04/30 11:31:42;;;;;;;3.37;1.00;;;19.00;1.00;;;;;;5054540;28;20406;-88
2022/04/30 11:34:12;;;;;;;2.53;0.90;;;19.10;1.00;;;;;;5055221;28;20523;-92
2022/04/30 11:36:43;;;;;;;2.97;1.00;;;19.20;1.00;;;;;;5035512;28;20481;-87
2022/04/30 11:39:11;;;;;;;2.30;1.50;;;19.10;1.00;;;;;;5054197;28;20972;-88
2022/04/30 11:41:39;;;;;;;2.53;1.20;;;19.00;1.00;;;;;;5054300;28;20415;-88
2022/04/30 11:44:05;;;;;;;8.13;1.57;;;18.80;1.00;;;;;;5054070;28;20451;-89
2022/04/30 11:46:30;;;;;;;2.50;1.00;;;18.60;1.00;;;;;;5053834;28;20450;-89
2022/04/30 11:49:06;;;;;;;2.67;1.10;;;18.40;1.00;;;;;;5057802;28;20782;-86
2022/04/30 11:51:44;;;;;;;2.50;0.87;;;18.10;1.00;;;;;;5038929;28;20167;-88
2022/04/30 11:54:13;;;;;;;5.80;1.27;;;17.90;1.00;;;;;;5055716;28;20430;-87
2022/04/30 11:56:42;;;;;;;4.77;1.23;;;18.30;1.00;;;;;;5037430;28;20441;-88
2022/04/30 11:59:08;;;;;;;2.37;1.40;;;18.60;1.00;;;;;;5036780;28;20851;-89
2022/04/30 12:01:35;;;;;;;1.97;1.50;;;18.10;1.00;;;;;;5036920;28;20417;-87
2022/04/30 12:04:08;;;;;;;3.17;1.30;;;17.70;1.00;;;;;;5037052;28;20646;-86
2022/04/30 12:06:36;;;;;;;3.30;2.47;;;17.50;1.00;;;;;;5028302;28;20439;-87
2022/04/30 12:09:19;;;;;;;2.30;1.13;;;17.40;1.00;;;;;;5025723;28;20424;-88
2022/04/30 12:11:53;;;;;;;1.70;1.60;;;17.40;1.00;;;;;;5026272;28;20431;-89
2022/04/30 12:14:19;;;;;;;2.10;1.53;;;17.20;1.00;;;;;;5042282;28;20452;-89
2022/04/30 12:16:46;;;;;;;4.30;2.03;;;17.10;1.00;;;;;;5034538;28;20407;-89
2022/04/30 12:25:17;;;;;;;3.67;1.50;;;16.90;1.00;;;;;;5034131;28;20965;-89
2022/04/30 12:28:02;;;;;;;4.83;1.23;;;17.00;1.00;;;;;;5033943;28;20416;-90
2022/04/30 12:30:28;;;;;;;7.70;1.90;;;17.00;1.00;;;;;;5034704;28;20424;-88
2022/04/30 12:32:58;;;;;;;5.07;1.87;;;17.50;1.00;;;;;;5016941;28;20435;-90
2022/04/30 12:35:25;;;;;;;3.97;1.80;;;18.30;1.00;;;;;;5016939;28;20429;-89
2022/04/30 12:38:04;;;;;;;3.73;1.50;;;19.00;1.00;;;;;;5016437;28;20508;-90
2022/04/30 12:40:29;;;;;;;2.13;1.17;;;19.00;1.00;;;;;;5034089;28;20423;-89
2022/04/30 12:42:55;;;;;;;2.50;1.47;;;19.20;1.00;;;;;;5033335;28;20462;-87
2022/04/30 12:45:21;;;;;;;5.70;2.40;;;19.00;1.00;;;;;;5014203;28;20515;-86
2022/04/30 12:47:48;;;;;;;3.00;1.33;;;18.60;1.00;;;;;;5033716;28;20682;-89
2022/04/30 12:50:14;;;;;;;3.13;1.70;;;18.10;1.00;;;;;;5016003;28;20257;-88
2022/04/30 12:52:39;;;;;;;5.40;1.30;;;17.80;1.00;;;;;;5033286;28;20478;-88
2022/04/30 12:55:05;;;;;;;3.77;1.33;;;17.60;1.00;;;;;;5015245;28;20211;-91
2022/04/30 12:57:31;;;;;;;6.83;1.87;;;17.70;1.00;;;;;;5015155;28;20721;-87
2022/04/30 13:00:00;;;;;;;3.93;1.20;;;17.90;1.00;;;;;;5015850;28;20436;-87
2022/04/30 13:02:27;;;;;;;3.27;1.47;;;18.40;1.00;;;;;;5032505;28;20165;-87
2022/04/30 13:04:52;;;;;;;4.80;1.90;;;17.80;1.00;;;;;;5017622;28;20440;-88
2022/04/30 13:07:18;;;;;;;2.13;1.63;;;17.70;1.00;;;;;;5034393;28;20520;-88
2022/04/30 13:15:12;;;;;;;3.70;1.73;;;17.50;1.00;;;;;;5053469;28;20489;-88
2022/04/30 13:17:38;;;;;;;1.87;1.40;;;17.50;1.00;;;;;;5052553;28;20450;-88
2022/04/30 13:20:07;;;;;;;3.17;1.37;;;17.70;1.00;;;;;;5026370;28;20196;-89
2022/04/30 13:22:32;;;;;;;3.70;1.23;;;17.70;1.00;;;;;;5034281;28;20455;-90
2022/04/30 13:24:58;;;;;;;4.20;0.73;;;17.50;1.00;;;;;;5055066;28;20510;-90
2022/04/30 13:27:24;;;;;;;2.47;1.43;;;17.60;1.00;;;;;;5054715;28;20241;-88
2022/04/30 13:29:51;;;;;;;2.20;1.10;;;17.70;1.00;;;;;;5073591;28;20165;-91
2022/04/30 13:32:16;;;;;;;2.30;1.13;;;18.10;1.00;;;;;;5058534;28;20256;-88
2022/04/30 13:34:42;;;;;;;2.97;1.90;;;18.10;1.00;;;;;;5050021;28;20497;-89
2022/04/30 13:37:07;;;;;;;4.83;1.07;;;18.20;1.00;;;;;;5035147;28;20197;-89
2022/04/30 13:39:33;;;;;;;5.17;1.43;;;18.50;1.00;;;;;;5053130;28;20228;-86
2022/04/30 13:41:58;;;;;;;3.50;2.43;;;18.60;1.00;;;;;;5052379;28;20184;-87
2022/04/30 13:44:25;;;;;;;2.90;1.33;;;18.00;1.00;;;;;;5035314;28;20174;-91
2022/04/30 13:46:51;;;;;;;5.20;1.53;;;18.30;1.00;;;;;;5034949;28;20319;-87